Time;durP1;ratioP1;P1;durP2;ratioP2;P2;SDS_P1;SDS_P2;PMS_P1;PMS_P2;Temp;Humidity;BMP_temperature;BMP_pressure;BME280_temperature;BME280_humidity;BME280_pressure;Samples;Min_cycle;Max_cycle;Signal;HPM_P1;HPM_P2
2023/12/06 00:00:36;;;;;;;79.70;39.80;;;5.00;99.90;;;;;;5016847;28;20116;-70
2023/12/06 00:03:03;;;;;;;79.80;40.88;;;4.90;99.90;;;;;;5016376;28;20030;-68
2023/12/06 00:05:31;;;;;;;82.45;40.30;;;5.00;99.90;;;;;;5015588;28;20100;-69
2023/12/06 00:07:56;;;;;;;84.28;40.35;;;4.90;99.90;;;;;;5014152;28;20499;-70
2023/12/06 00:10:22;;;;;;;73.68;37.03;;;4.90;99.90;;;;;;5016441;28;20037;-69
2023/12/06 00:12:48;;;;;;;80.72;39.72;;;5.00;99.90;;;;;;5013683;28;20026;-69
2023/12/06 00:15:15;;;;;;;81.00;39.80;;;4.90;99.90;;;;;;5016487;28;20027;-69
2023/12/06 00:17:41;;;;;;;81.97;39.22;;;5.00;99.90;;;;;;5016090;28;20023;-69
2023/12/06 00:20:07;;;;;;;81.60;40.90;;;5.00;99.90;;;;;;5016775;28;20445;-69
2023/12/06 00:22:33;;;;;;;84.50;41.35;;;5.00;99.90;;;;;;5013028;28;20026;-69
2023/12/06 00:24:58;;;;;;;79.90;41.15;;;5.00;99.90;;;;;;5016146;28;20108;-69
2023/12/06 00:27:24;;;;;;;82.95;39.75;;;5.00;99.90;;;;;;5017503;28;20470;-69
2023/12/06 00:29:50;;;;;;;88.82;42.72;;;5.00;99.90;;;;;;4999755;28;20077;-68
2023/12/06 00:32:15;;;;;;;85.50;41.70;;;5.00;99.90;;;;;;5016960;28;20535;-73
2023/12/06 00:34:41;;;;;;;80.35;40.50;;;5.00;99.90;;;;;;5015739;28;20483;-69
2023/12/06 00:37:07;;;;;;;87.47;41.38;;;5.00;99.90;;;;;;5016274;28;20072;-68
2023/12/06 00:39:32;;;;;;;81.90;40.75;;;5.00;99.90;;;;;;5013599;28;20026;-69
2023/12/06 00:41:59;;;;;;;80.65;41.70;;;5.00;99.90;;;;;;5017951;28;20176;-69
2023/12/06 00:44:25;;;;;;;84.07;42.08;;;5.00;99.90;;;;;;5017160;28;20392;-69
2023/12/06 00:46:50;;;;;;;91.40;43.38;;;5.00;99.90;;;;;;5016087;28;20030;-69
2023/12/06 00:49:18;;;;;;;90.32;42.70;;;5.10;99.90;;;;;;5015370;28;20505;-68
2023/12/06 00:51:44;;;;;;;85.68;42.53;;;5.10;99.90;;;;;;4994128;28;20497;-69
2023/12/06 00:54:09;;;;;;;87.15;42.30;;;5.10;99.90;;;;;;5014213;28;20065;-68
2023/12/06 00:56:35;;;;;;;85.50;41.00;;;4.90;99.90;;;;;;4998903;28;20018;-68
2023/12/06 00:59:01;;;;;;;81.28;39.55;;;4.90;99.90;;;;;;5015851;28;20081;-70
2023/12/06 01:01:27;;;;;;;80.25;38.90;;;5.00;99.90;;;;;;5017161;28;20363;-68
2023/12/06 01:03:52;;;;;;;82.25;39.60;;;5.00;99.90;;;;;;5008918;28;20490;-68
2023/12/06 01:06:18;;;;;;;84.60;39.85;;;5.00;99.90;;;;;;5013892;28;20101;-69
2023/12/06 01:08:44;;;;;;;81.45;39.63;;;4.90;99.90;;;;;;5012626;28;20117;-69
2023/12/06 01:11:09;;;;;;;86.45;40.72;;;5.00;99.90;;;;;;5014478;28;20021;-69
2023/12/06 01:13:35;;;;;;;80.72;39.17;;;5.00;99.90;;;;;;5011539;28;20105;-69
2023/12/06 01:16:01;;;;;;;80.20;38.38;;;5.10;99.90;;;;;;5012826;28;20065;-68
2023/12/06 01:18:27;;;;;;;82.32;40.97;;;5.00;99.90;;;;;;5010702;28;20549;-68
2023/12/06 01:20:52;;;;;;;85.50;40.47;;;5.00;99.90;;;;;;5012597;28;20040;-69
2023/12/06 01:23:18;;;;;;;79.05;42.03;;;5.10;99.90;;;;;;5012323;28;20521;-68
2023/12/06 01:25:44;;;;;;;79.10;40.25;;;5.10;99.90;;;;;;5010931;28;20052;-69
2023/12/06 01:28:09;;;;;;;85.88;41.47;;;5.10;99.90;;;;;;5013027;28;20386;-68
2023/12/06 01:30:36;;;;;;;82.13;38.92;;;5.10;99.90;;;;;;5010348;28;20052;-69
2023/12/06 01:33:01;;;;;;;82.93;41.60;;;5.10;99.90;;;;;;4996081;28;20025;-68
2023/12/06 01:35:27;;;;;;;75.30;38.88;;;5.20;99.90;;;;;;4994257;28;20053;-68
2023/12/06 01:37:53;;;;;;;75.38;37.63;;;5.20;99.90;;;;;;5011831;28;20482;-68
2023/12/06 01:40:19;;;;;;;70.72;35.97;;;5.10;99.90;;;;;;5010079;28;20520;-68
2023/12/06 01:42:46;;;;;;;78.35;41.17;;;5.10;99.90;;;;;;5012692;28;20026;-68
2023/12/06 01:45:12;;;;;;;81.10;39.80;;;5.10;99.90;;;;;;5012601;28;20048;-69
2023/12/06 01:47:38;;;;;;;77.82;38.38;;;5.10;99.90;;;;;;5010162;28;20041;-68
2023/12/06 01:50:05;;;;;;;70.90;35.85;;;5.20;99.90;;;;;;5009525;28;20060;-68
2023/12/06 01:52:31;;;;;;;79.20;40.35;;;5.20;99.90;;;;;;5012781;28;20026;-69
2023/12/06 01:54:58;;;;;;;69.28;35.45;;;5.10;99.90;;;;;;5009186;28;20022;-68
2023/12/06 01:57:26;;;;;;;74.80;37.03;;;5.10;99.90;;;;;;5008681;28;20025;-68
2023/12/06 01:59:53;;;;;;;74.28;36.50;;;5.10;99.90;;;;;;4994292;28;20133;-69
2023/12/06 02:02:19;;;;;;;77.15;39.92;;;5.10;99.90;;;;;;5009449;28;20022;-68
2023/12/06 02:04:45;;;;;;;75.53;38.45;;;5.10;99.90;;;;;;5011671;28;20089;-68
2023/12/06 02:07:12;;;;;;;71.40;35.58;;;5.20;99.90;;;;;;5008575;28;20030;-69
2023/12/06 02:09:37;;;;;;;66.72;35.72;;;5.20;99.90;;;;;;5011177;28;20045;-68
2023/12/06 02:12:03;;;;;;;68.07;37.40;;;5.20;99.90;;;;;;5012383;28;20114;-68
2023/12/06 02:14:34;;;;;;;70.72;37.83;;;5.10;99.90;;;;;;4990666;28;20053;-68
2023/12/06 02:17:02;;;;;;;71.90;38.25;;;5.10;99.90;;;;;;5012669;28;20076;-68
2023/12/06 02:19:29;;;;;;;70.43;38.67;;;5.10;99.90;;;;;;5007151;28;20398;-68
2023/12/06 02:21:55;;;;;;;73.82;37.25;;;5.10;99.90;;;;;;5011365;28;20495;-69
2023/12/06 02:24:25;;;;;;;73.20;38.42;;;5.20;99.90;;;;;;5009881;28;20030;-69
2023/12/06 02:26:52;;;;;;;66.18;37.22;;;5.10;99.90;;;;;;5011113;28;20026;-68
2023/12/06 02:29:18;;;;;;;69.80;36.67;;;5.20;99.90;;;;;;5009598;28;20108;-68
2023/12/06 02:31:44;;;;;;;68.78;37.67;;;5.10;99.90;;;;;;5011430;28;20823;-68
2023/12/06 02:34:17;;;;;;;69.07;36.65;;;5.10;99.90;;;;;;5010078;28;20030;-69
2023/12/06 02:36:47;;;;;;;68.03;36.20;;;5.10;99.90;;;;;;5011464;28;20446;-68
2023/12/06 02:39:13;;;;;;;70.60;38.30;;;5.10;99.90;;;;;;5011431;28;20072;-68
2023/12/06 02:41:38;;;;;;;69.88;38.08;;;5.10;99.90;;;;;;5011795;28;20022;-69
2023/12/06 02:44:04;;;;;;;74.00;37.20;;;5.10;99.90;;;;;;5007780;28;20080;-68
2023/12/06 02:46:30;;;;;;;68.55;36.08;;;5.10;99.90;;;;;;5011641;28;20026;-69
2023/12/06 02:48:56;;;;;;;68.88;36.47;;;5.10;99.90;;;;;;5009392;28;20040;-69
2023/12/06 02:51:23;;;;;;;70.15;37.10;;;5.10;99.90;;;;;;4994230;28;20030;-70
2023/12/06 02:53:49;;;;;;;66.07;35.05;;;5.20;99.90;;;;;;5011496;28;20034;-70
2023/12/06 02:56:15;;;;;;;67.43;35.40;;;5.10;99.90;;;;;;5010203;28;20104;-70
2023/12/06 02:58:40;;;;;;;71.90;38.35;;;5.20;99.90;;;;;;5007873;28;20415;-69
2023/12/06 03:01:06;;;;;;;72.32;39.45;;;5.10;99.90;;;;;;5011158;28;20478;-68
2023/12/06 03:03:32;;;;;;;70.22;36.85;;;5.10;99.90;;;;;;5008403;28;20425;-71
2023/12/06 03:05:58;;;;;;;65.40;36.53;;;5.10;99.90;;;;;;5010918;28;20080;-71
2023/12/06 03:08:23;;;;;;;68.15;39.20;;;5.20;99.90;;;;;;5008554;28;20104;-70
2023/12/06 03:10:49;;;;;;;66.70;37.50;;;5.30;99.90;;;;;;5010622;28;20080;-68
2023/12/06 03:13:15;;;;;;;65.82;37.90;;;5.30;99.90;;;;;;5009437;28;20387;-70
2023/12/06 03:15:40;;;;;;;68.53;38.03;;;5.30;99.90;;;;;;5011446;28;20469;-68
2023/12/06 03:18:06;;;;;;;68.32;36.88;;;5.30;99.90;;;;;;5010467;28;20022;-69
2023/12/06 03:20:33;;;;;;;69.03;37.05;;;5.40;99.90;;;;;;5008187;28;20022;-70
2023/12/06 03:22:59;;;;;;;68.20;37.17;;;5.30;99.90;;;;;;5009253;28;20213;-69
2023/12/06 03:25:25;;;;;;;66.38;37.25;;;5.30;99.90;;;;;;5008091;28;20030;-70
2023/12/06 03:27:51;;;;;;;63.78;34.45;;;5.30;99.90;;;;;;5010404;28;20086;-69
2023/12/06 03:30:16;;;;;;;62.40;34.30;;;5.30;99.90;;;;;;5010870;28;20463;-69
2023/12/06 03:32:43;;;;;;;61.03;34.90;;;5.30;99.90;;;;;;5007130;28;20025;-71
2023/12/06 03:35:08;;;;;;;65.95;34.22;;;5.30;99.90;;;;;;5010802;28;20018;-70
2023/12/06 03:37:34;;;;;;;65.47;33.63;;;5.30;99.90;;;;;;5010325;28;20029;-70
2023/12/06 03:40:00;;;;;;;60.47;34.35;;;5.30;99.90;;;;;;5008970;28;20044;-69
2023/12/06 03:42:26;;;;;;;61.97;34.05;;;5.30;99.90;;;;;;5008012;28;20033;-69
2023/12/06 03:44:51;;;;;;;66.47;35.92;;;5.30;99.90;;;;;;5011812;28;20390;-69
2023/12/06 03:47:17;;;;;;;60.72;35.08;;;5.40;99.90;;;;;;5007364;28;20475;-70
2023/12/06 03:49:43;;;;;;;62.40;33.47;;;5.30;99.90;;;;;;5011147;28;20062;-68
2023/12/06 03:52:09;;;;;;;62.40;35.25;;;5.40;99.90;;;;;;5009914;28;20033;-70
2023/12/06 03:54:35;;;;;;;60.08;33.75;;;5.40;99.90;;;;;;5010018;28;20026;-69
2023/12/06 03:57:01;;;;;;;59.22;35.97;;;5.40;99.90;;;;;;5007016;28;20099;-69
2023/12/06 03:59:27;;;;;;;62.80;35.53;;;5.40;99.90;;;;;;5010175;28;20030;-69
2023/12/06 04:01:52;;;;;;;57.67;33.20;;;5.30;99.90;;;;;;5007744;28;20029;-70
2023/12/06 04:04:18;;;;;;;63.05;34.42;;;5.30;99.90;;;;;;5010309;28;20487;-70
2023/12/06 04:06:44;;;;;;;59.42;34.35;;;5.40;99.90;;;;;;5008990;28;20034;-69
2023/12/06 04:09:13;;;;;;;67.15;35.75;;;5.40;99.90;;;;;;5011039;28;20116;-69
2023/12/06 04:11:38;;;;;;;62.85;33.53;;;5.40;99.90;;;;;;5007729;28;20057;-69
2023/12/06 04:14:04;;;;;;;55.72;32.28;;;5.40;99.90;;;;;;5010263;28;20553;-71
2023/12/06 04:16:30;;;;;;;61.47;34.70;;;5.50;99.90;;;;;;5008456;28;20028;-69
2023/12/06 04:18:56;;;;;;;52.05;32.03;;;5.50;99.90;;;;;;5008629;28;20026;-69
2023/12/06 04:21:22;;;;;;;59.22;33.00;;;5.50;99.90;;;;;;5006744;28;20379;-70
2023/12/06 04:23:48;;;;;;;59.70;34.28;;;5.50;99.90;;;;;;5011345;28;20029;-70
2023/12/06 04:26:14;;;;;;;57.40;33.55;;;5.50;99.90;;;;;;5008621;28;20364;-69
2023/12/06 04:28:40;;;;;;;58.67;33.92;;;5.50;99.90;;;;;;5009564;28;20125;-69
2023/12/06 04:31:06;;;;;;;62.47;34.92;;;5.50;99.90;;;;;;5010483;28;20113;-69
2023/12/06 04:33:32;;;;;;;59.55;34.97;;;5.50;99.90;;;;;;5008824;28;20497;-70
2023/12/06 04:35:57;;;;;;;61.88;32.80;;;5.60;99.90;;;;;;5008597;28;20014;-70
2023/12/06 04:38:23;;;;;;;57.03;31.60;;;5.60;99.90;;;;;;5011928;28;20032;-68
2023/12/06 04:40:49;;;;;;;56.08;32.33;;;5.60;99.90;;;;;;5014050;28;20061;-71
2023/12/06 04:43:17;;;;;;;58.78;32.63;;;5.60;99.90;;;;;;4996929;28;20061;-69
2023/12/06 04:45:43;;;;;;;60.85;34.35;;;5.60;99.90;;;;;;5012748;28;20093;-69
2023/12/06 04:48:09;;;;;;;61.20;34.33;;;5.60;99.90;;;;;;5012503;28;20493;-73
2023/12/06 04:50:34;;;;;;;69.38;38.65;;;5.60;99.90;;;;;;5014427;28;20088;-69
2023/12/06 04:53:00;;;;;;;65.32;35.22;;;5.60;99.90;;;;;;5010379;28;20129;-70
2023/12/06 04:55:26;;;;;;;60.85;33.95;;;5.50;99.90;;;;;;5013508;28;20030;-69
2023/12/06 04:57:51;;;;;;;63.45;34.33;;;5.60;99.90;;;;;;5012660;28;20038;-69
2023/12/06 05:00:17;;;;;;;66.85;35.20;;;5.60;99.90;;;;;;5012379;28;20026;-69
2023/12/06 05:02:43;;;;;;;62.13;35.88;;;5.60;99.90;;;;;;5014082;28;20033;-68
2023/12/06 05:05:09;;;;;;;65.05;36.30;;;5.60;99.90;;;;;;5010281;28;20124;-69
2023/12/06 05:07:35;;;;;;;67.15;36.15;;;5.60;99.90;;;;;;5013698;28;20037;-69
2023/12/06 05:10:01;;;;;;;65.10;36.75;;;5.60;99.90;;;;;;5014134;28;20379;-69
2023/12/06 05:12:27;;;;;;;69.88;39.25;;;5.70;99.90;;;;;;5011583;28;20109;-69
2023/12/06 05:14:52;;;;;;;76.95;40.58;;;5.60;99.90;;;;;;5013472;28;20072;-69
2023/12/06 05:17:18;;;;;;;70.97;40.15;;;5.70;99.90;;;;;;5008173;28;20061;-69
2023/12/06 05:19:43;;;;;;;64.95;36.83;;;5.70;99.90;;;;;;5014042;28;20045;-70
2023/12/06 05:22:09;;;;;;;65.30;36.15;;;5.70;99.90;;;;;;5010517;28;20430;-69
2023/12/06 05:24:35;;;;;;;70.63;38.40;;;5.80;99.90;;;;;;5012715;28;20391;-69
2023/12/06 05:27:00;;;;;;;76.30;38.05;;;5.80;99.90;;;;;;5009928;28;20372;-70
2023/12/06 05:29:26;;;;;;;72.25;38.65;;;5.70;99.90;;;;;;5011795;28;20507;-72
2023/12/06 05:31:52;;;;;;;76.90;40.72;;;5.70;99.90;;;;;;5013027;28;20022;-69
2023/12/06 05:34:19;;;;;;;79.85;41.47;;;5.70;99.90;;;;;;5013639;28;20073;-69
2023/12/06 05:36:44;;;;;;;78.97;43.45;;;5.70;99.90;;;;;;5010001;28;20501;-69
2023/12/06 05:39:10;;;;;;;72.53;40.78;;;5.70;99.90;;;;;;5011882;28;20450;-71
2023/12/06 05:41:36;;;;;;;81.68;41.22;;;5.60;99.90;;;;;;5012920;28;20439;-69
2023/12/06 05:44:05;;;;;;;86.45;42.08;;;5.70;99.90;;;;;;5011264;28;20487;-69
2023/12/06 05:46:31;;;;;;;67.80;38.85;;;5.70;99.90;;;;;;5010010;28;20374;-69
2023/12/06 05:48:56;;;;;;;79.00;40.28;;;5.70;99.90;;;;;;5011590;28;20050;-70
2023/12/06 05:51:22;;;;;;;74.65;39.88;;;5.80;99.90;;;;;;5012301;28;20109;-72
2023/12/06 05:53:49;;;;;;;75.72;40.22;;;5.80;99.90;;;;;;5010011;28;20059;-70
2023/12/06 05:56:15;;;;;;;77.32;40.28;;;5.80;99.90;;;;;;5012455;28;20025;-69
2023/12/06 05:58:42;;;;;;;82.38;41.65;;;5.80;99.90;;;;;;5010820;28;20021;-69
2023/12/06 06:01:08;;;;;;;74.57;41.22;;;5.80;99.90;;;;;;5011871;28;20064;-69
2023/12/06 06:03:34;;;;;;;74.22;43.38;;;5.90;99.90;;;;;;5012057;28;20049;-69
2023/12/06 06:06:07;;;;;;;79.53;44.20;;;5.80;99.90;;;;;;5009787;28;20026;-69
2023/12/06 06:08:35;;;;;;;82.25;43.63;;;5.80;99.90;;;;;;5011657;28;20117;-69
2023/12/06 06:11:05;;;;;;;78.63;43.38;;;5.90;99.90;;;;;;5009631;28;20038;-69
2023/12/06 06:13:30;;;;;;;84.78;44.10;;;5.90;99.90;;;;;;5012046;28;20029;-69
2023/12/06 06:15:57;;;;;;;81.43;43.35;;;5.90;99.90;;;;;;5010287;28;20099;-70
2023/12/06 06:18:23;;;;;;;81.03;43.72;;;5.80;99.90;;;;;;5011108;28;20057;-70
2023/12/06 06:20:49;;;;;;;78.97;40.28;;;5.90;99.90;;;;;;5010939;28;20042;-69
2023/12/06 06:23:14;;;;;;;81.85;41.03;;;5.90;99.90;;;;;;5007834;28;20022;-70
2023/12/06 06:25:40;;;;;;;83.28;41.97;;;5.90;99.90;;;;;;5011753;28;20030;-70
2023/12/06 06:28:06;;;;;;;81.20;42.58;;;5.90;99.90;;;;;;5008535;28;20041;-70
2023/12/06 06:30:32;;;;;;;78.40;41.88;;;5.90;99.90;;;;;;5011585;28;20385;-71
2023/12/06 06:32:57;;;;;;;69.18;37.03;;;5.90;99.90;;;;;;5012025;28;20497;-70
2023/12/06 06:35:23;;;;;;;71.13;37.78;;;5.80;99.90;;;;;;5010532;28;20045;-69
2023/12/06 06:37:50;;;;;;;74.95;38.85;;;5.90;99.90;;;;;;5010319;28;20410;-69
2023/12/06 06:40:16;;;;;;;70.88;38.75;;;6.00;99.90;;;;;;5011569;28;20025;-70
2023/12/06 06:42:42;;;;;;;67.10;36.17;;;6.00;99.90;;;;;;5009867;28;20025;-69
2023/12/06 06:45:11;;;;;;;64.93;35.80;;;6.00;99.90;;;;;;5010102;28;20655;-69
2023/12/06 06:47:37;;;;;;;65.90;34.45;;;6.00;99.90;;;;;;5012005;28;20088;-69
2023/12/06 06:50:04;;;;;;;64.60;35.13;;;6.00;99.90;;;;;;5010219;28;20080;-69
2023/12/06 06:52:36;;;;;;;59.72;34.17;;;6.00;99.90;;;;;;5009180;28;20060;-69
2023/12/06 06:55:02;;;;;;;67.57;33.85;;;6.00;99.90;;;;;;5009949;28;20513;-69
2023/12/06 06:57:29;;;;;;;76.13;36.08;;;6.00;99.90;;;;;;5010613;28;20021;-69
2023/12/06 06:59:54;;;;;;;84.07;47.65;;;6.10;99.90;;;;;;5008854;28;20610;-70
2023/12/06 07:02:20;;;;;;;74.60;36.63;;;6.10;99.90;;;;;;5008354;28;20113;-69
2023/12/06 07:04:46;;;;;;;74.60;37.95;;;6.10;99.90;;;;;;5011845;28;20026;-69
2023/12/06 07:07:12;;;;;;;77.93;39.70;;;6.10;99.90;;;;;;5010165;28;20521;-68
2023/12/06 07:09:37;;;;;;;76.30;37.22;;;6.10;99.90;;;;;;5008231;28;20145;-69
2023/12/06 07:12:03;;;;;;;83.55;39.28;;;6.10;99.90;;;;;;5010586;28;20057;-69
2023/12/06 07:14:29;;;;;;;76.57;39.90;;;6.10;99.90;;;;;;5009425;28;20034;-69
2023/12/06 07:16:56;;;;;;;77.72;39.95;;;6.10;99.90;;;;;;5010068;28;20065;-74
2023/12/06 07:19:22;;;;;;;83.88;39.30;;;6.10;99.90;;;;;;5009026;28;20122;-70
2023/12/06 07:21:49;;;;;;;81.55;39.35;;;6.20;99.90;;;;;;5009097;28;20542;-70
2023/12/06 07:24:14;;;;;;;78.82;40.58;;;6.00;99.90;;;;;;5007472;28;20224;-70
2023/12/06 07:26:42;;;;;;;76.57;38.67;;;6.10;99.90;;;;;;5008999;28;20061;-71
2023/12/06 07:29:08;;;;;;;79.82;39.97;;;6.10;99.90;;;;;;4995686;28;20633;-69
2023/12/06 07:31:34;;;;;;;78.20;39.08;;;6.10;99.90;;;;;;5004499;28;20144;-69
2023/12/06 07:34:00;;;;;;;75.45;38.03;;;6.10;99.90;;;;;;5003917;28;20113;-70
2023/12/06 07:36:25;;;;;;;77.68;39.97;;;6.10;99.90;;;;;;5007651;28;20018;-75
2023/12/06 07:38:51;;;;;;;75.18;38.38;;;6.10;99.90;;;;;;5009660;28;20088;-71
2023/12/06 07:41:17;;;;;;;77.90;39.08;;;6.10;99.90;;;;;;5006151;28;20438;-73
2023/12/06 07:43:42;;;;;;;78.45;39.83;;;6.00;99.90;;;;;;5000983;28;20022;-69
2023/12/06 07:46:10;;;;;;;77.47;41.47;;;6.10;99.90;;;;;;5005482;28;20776;-71
2023/12/06 07:48:35;;;;;;;80.78;41.53;;;6.10;99.90;;;;;;5009708;28;20041;-76
2023/12/06 07:51:01;;;;;;;79.05;38.97;;;6.10;99.90;;;;;;5008745;28;20026;-72
2023/12/06 07:53:27;;;;;;;82.93;40.63;;;6.10;99.90;;;;;;5010792;28;20029;-72
2023/12/06 07:55:58;;;;;;;79.65;40.45;;;6.10;99.90;;;;;;5010800;28;20026;-73
2023/12/06 07:58:24;;;;;;;80.82;39.42;;;6.10;99.90;;;;;;5011331;28;20419;-73
2023/12/06 08:00:51;;;;;;;84.97;41.83;;;6.10;99.90;;;;;;5008925;28;20054;-71
2023/12/06 08:03:18;;;;;;;84.43;39.60;;;6.20;99.90;;;;;;5006345;28;20044;-70
2023/12/06 08:05:44;;;;;;;83.68;38.65;;;6.20;99.90;;;;;;5009970;28;20554;-71
2023/12/06 08:08:09;;;;;;;95.63;41.58;;;6.20;99.90;;;;;;5009316;28;20573;-70
2023/12/06 08:10:35;;;;;;;76.25;38.28;;;6.20;99.90;;;;;;5008366;28;20737;-70
2023/12/06 08:13:01;;;;;;;79.78;40.03;;;6.20;99.90;;;;;;5009712;28;20037;-74
2023/12/06 08:15:28;;;;;;;79.72;38.30;;;6.30;99.90;;;;;;5010638;28;20025;-71
2023/12/06 08:17:56;;;;;;;79.10;38.90;;;6.30;99.90;;;;;;5013882;28;20092;-71
2023/12/06 08:20:22;;;;;;;80.25;38.60;;;6.30;99.90;;;;;;5014025;28;20109;-70
2023/12/06 08:22:48;;;;;;;77.43;40.60;;;6.30;99.90;;;;;;5007026;28;20117;-70
2023/12/06 08:25:13;;;;;;;80.40;38.70;;;6.30;99.90;;;;;;4996126;28;20088;-70
2023/12/06 08:27:40;;;;;;;76.85;38.83;;;6.30;99.90;;;;;;5012345;28;20065;-70
2023/12/06 08:30:06;;;;;;;77.57;39.47;;;6.20;99.90;;;;;;5010676;28;20053;-71
2023/12/06 08:32:32;;;;;;;79.72;39.20;;;6.10;99.90;;;;;;5011943;28;20038;-70
2023/12/06 08:34:58;;;;;;;84.65;39.67;;;6.10;99.90;;;;;;5014388;28;20045;-70
2023/12/06 08:37:26;;;;;;;79.47;37.53;;;6.10;99.90;;;;;;5013626;28;20080;-72
2023/12/06 08:39:51;;;;;;;67.72;35.75;;;6.10;99.90;;;;;;5008393;28;20033;-70
2023/12/06 08:42:17;;;;;;;80.80;37.55;;;6.00;99.90;;;;;;5013846;28;20036;-71
2023/12/06 08:44:44;;;;;;;75.45;38.10;;;6.00;99.90;;;;;;5014631;28;20018;-70
2023/12/06 08:47:10;;;;;;;71.10;36.72;;;6.00;99.90;;;;;;5012291;28;20038;-73
2023/12/06 08:49:37;;;;;;;73.18;37.05;;;6.00;99.90;;;;;;5013178;28;20041;-71
2023/12/06 08:52:04;;;;;;;79.00;37.08;;;6.00;99.90;;;;;;5014396;28;20046;-70
2023/12/06 08:54:29;;;;;;;70.65;37.08;;;6.00;99.90;;;;;;5012831;28;20041;-69
2023/12/06 08:56:55;;;;;;;75.28;37.22;;;6.00;99.90;;;;;;5011732;28;20226;-70
2023/12/06 08:59:21;;;;;;;75.00;38.00;;;5.90;99.90;;;;;;5012408;28;20471;-70
2023/12/06 09:01:47;;;;;;;80.47;42.28;;;5.90;99.90;;;;;;5013050;28;20104;-70
2023/12/06 09:04:13;;;;;;;74.57;39.28;;;5.90;99.90;;;;;;5013245;28;20180;-69
2023/12/06 09:06:38;;;;;;;77.43;40.30;;;5.90;99.90;;;;;;5009457;28;20026;-69
2023/12/06 09:09:05;;;;;;;75.57;39.10;;;6.00;99.90;;;;;;4995721;28;20099;-69
2023/12/06 09:11:31;;;;;;;84.18;41.08;;;6.00;99.90;;;;;;5010431;28;20915;-69
2023/12/06 09:13:57;;;;;;;79.82;39.17;;;6.00;99.90;;;;;;5013115;28;20495;-70
2023/12/06 09:16:22;;;;;;;72.22;37.33;;;6.00;99.90;;;;;;5013441;28;20033;-69
2023/12/06 09:18:48;;;;;;;73.38;37.63;;;6.00;99.90;;;;;;4991898;28;20352;-69
2023/12/06 09:21:14;;;;;;;70.40;37.92;;;6.00;99.90;;;;;;5011390;28;20491;-70
2023/12/06 09:23:40;;;;;;;82.78;38.67;;;6.00;99.90;;;;;;5010893;28;20037;-70
2023/12/06 09:26:08;;;;;;;71.38;39.10;;;6.00;99.90;;;;;;4994838;28;20042;-71
2023/12/06 09:28:33;;;;;;;78.35;40.20;;;6.10;99.90;;;;;;5011429;28;20518;-69
2023/12/06 09:31:00;;;;;;;73.15;39.00;;;6.10;99.90;;;;;;5012233;28;20092;-68
2023/12/06 09:33:26;;;;;;;71.78;38.53;;;6.20;99.90;;;;;;5010198;28;20521;-68
2023/12/06 09:35:52;;;;;;;73.18;36.25;;;6.30;99.90;;;;;;5006723;28;20426;-72
2023/12/06 09:38:18;;;;;;;66.75;34.33;;;6.20;99.90;;;;;;4954516;28;20029;-69
2023/12/06 09:40:44;;;;;;;54.80;33.20;;;6.30;99.90;;;;;;4944124;28;20030;-69
2023/12/06 09:43:10;;;;;;;55.03;32.20;;;6.30;99.90;;;;;;4913706;28;20346;-70
2023/12/06 09:45:37;;;;;;;63.80;31.60;;;6.40;99.90;;;;;;4842880;28;20034;-69
2023/12/06 09:48:03;;;;;;;57.65;32.22;;;6.40;99.90;;;;;;4918060;28;20030;-68
2023/12/06 09:50:29;;;;;;;58.25;30.80;;;6.50;99.90;;;;;;4996185;28;20030;-68
2023/12/06 09:52:55;;;;;;;50.28;28.83;;;6.50;99.90;;;;;;4996424;28;20029;-68
2023/12/06 09:55:26;;;;;;;51.08;28.02;;;6.50;99.90;;;;;;4996464;28;20184;-68
2023/12/06 09:57:52;;;;;;;43.65;26.10;;;6.60;99.90;;;;;;4993685;28;20437;-68
2023/12/06 10:00:18;;;;;;;49.67;24.52;;;6.60;99.90;;;;;;4995521;28;20074;-68
2023/12/06 10:02:57;;;;;;;40.17;23.40;;;6.60;99.90;;;;;;4997065;28;20023;-69
2023/12/06 10:05:22;;;;;;;47.60;26.08;;;6.70;99.90;;;;;;4994522;28;20060;-70
2023/12/06 10:07:48;;;;;;;43.05;23.95;;;6.80;99.90;;;;;;4997573;28;20115;-68
2023/12/06 10:10:20;;;;;;;40.55;24.23;;;6.90;99.90;;;;;;4997021;28;20030;-70
2023/12/06 10:12:53;;;;;;;44.97;24.05;;;6.90;99.90;;;;;;4997011;28;20026;-68
2023/12/06 10:15:22;;;;;;;35.20;21.08;;;7.00;99.90;;;;;;4997366;28;20093;-69
2023/12/06 10:17:52;;;;;;;36.20;21.02;;;7.00;99.90;;;;;;4997631;28;20080;-75
2023/12/06 10:20:22;;;;;;;37.78;22.55;;;7.00;99.90;;;;;;4998107;28;20030;-72
2023/12/06 10:22:49;;;;;;;36.63;21.63;;;7.00;99.90;;;;;;4979656;28;20637;-68
2023/12/06 10:25:15;;;;;;;34.60;21.63;;;7.00;99.90;;;;;;4982003;28;20374;-68
2023/12/06 10:27:44;;;;;;;39.13;22.10;;;7.10;99.90;;;;;;4997959;28;20149;-68
2023/12/06 10:30:10;;;;;;;36.50;20.77;;;7.10;99.90;;;;;;4995112;28;20037;-70
2023/12/06 10:32:35;;;;;;;37.17;20.77;;;7.20;99.90;;;;;;4997867;28;20591;-71
2023/12/06 10:35:06;;;;;;;36.17;21.77;;;7.20;99.90;;;;;;4996780;28;20114;-67
2023/12/06 10:37:33;;;;;;;31.80;19.42;;;7.30;99.90;;;;;;4997540;28;20097;-68
2023/12/06 10:40:09;;;;;;;40.45;22.55;;;7.30;99.90;;;;;;5000668;28;20025;-68
2023/12/06 10:42:36;;;;;;;36.28;20.90;;;7.30;99.90;;;;;;4996980;28;20121;-68
2023/12/06 10:45:04;;;;;;;34.00;20.33;;;7.30;99.90;;;;;;4997151;28;20022;-68
2023/12/06 10:47:31;;;;;;;37.60;21.10;;;7.40;99.90;;;;;;4981538;28;20129;-68
2023/12/06 10:49:59;;;;;;;36.55;21.83;;;7.30;99.90;;;;;;4999189;28;20495;-68
2023/12/06 10:52:26;;;;;;;39.13;20.45;;;7.30;99.90;;;;;;4995531;28;20026;-68
2023/12/06 10:54:54;;;;;;;35.08;19.90;;;7.30;99.90;;;;;;4997253;28;20444;-68
2023/12/06 10:57:20;;;;;;;36.92;20.05;;;7.30;99.90;;;;;;4997444;28;20431;-68
2023/12/06 10:59:46;;;;;;;34.72;20.15;;;7.40;99.90;;;;;;4996866;28;20041;-68
2023/12/06 11:02:12;;;;;;;32.17;19.58;;;7.40;99.90;;;;;;4980602;28;20026;-68
2023/12/06 11:05:03;;;;;;;34.70;20.67;;;7.50;99.90;;;;;;4997856;28;20022;-67
2023/12/06 11:07:38;;;;;;;32.45;19.67;;;7.50;99.90;;;;;;4996362;28;20030;-68
2023/12/06 11:10:12;;;;;;;31.20;18.17;;;7.60;99.90;;;;;;4999109;28;20056;-68
2023/12/06 11:13:02;;;;;;;35.45;20.67;;;7.60;99.90;;;;;;4999293;28;20180;-68
2023/12/06 11:15:58;;;;;;;29.40;19.38;;;7.60;99.90;;;;;;4995342;28;20037;-68
2023/12/06 11:18:27;;;;;;;37.13;20.40;;;7.60;99.90;;;;;;4998940;28;20049;-68
2023/12/06 11:20:53;;;;;;;29.33;18.58;;;7.60;99.90;;;;;;4997015;28;20026;-67
2023/12/06 11:23:21;;;;;;;26.95;17.98;;;7.60;99.90;;;;;;4985511;28;20029;-67
2023/12/06 11:25:50;;;;;;;26.92;16.75;;;7.60;99.90;;;;;;4996020;28;20010;-68
2023/12/06 11:28:17;;;;;;;24.02;14.90;;;7.60;99.90;;;;;;4996244;28;20034;-67
2023/12/06 11:30:55;;;;;;;27.25;15.75;;;7.60;99.90;;;;;;4995102;28;20475;-67
2023/12/06 11:33:21;;;;;;;29.58;15.75;;;7.70;99.90;;;;;;4996953;28;20042;-70
2023/12/06 11:35:57;;;;;;;27.27;15.13;;;7.70;99.90;;;;;;4996474;28;20031;-69
2023/12/06 11:38:33;;;;;;;27.20;14.23;;;7.80;99.90;;;;;;4995907;28;20407;-69
2023/12/06 11:40:59;;;;;;;25.73;13.30;;;7.80;99.90;;;;;;4984398;28;20034;-68
2023/12/06 11:43:38;;;;;;;23.83;14.30;;;7.80;99.90;;;;;;4981775;28;20049;-67
2023/12/06 11:46:04;;;;;;;24.50;12.77;;;7.80;99.90;;;;;;4996581;28;20018;-70
2023/12/06 11:48:37;;;;;;;20.80;12.27;;;7.70;99.90;;;;;;4995515;28;20092;-70
2023/12/06 11:51:04;;;;;;;16.60;11.43;;;7.60;99.90;;;;;;4998444;28;20104;-67
2023/12/06 11:53:30;;;;;;;23.88;12.23;;;7.60;99.90;;;;;;4992952;28;20026;-69
2023/12/06 11:55:56;;;;;;;21.00;11.93;;;7.60;99.90;;;;;;4995490;28;20049;-68
2023/12/06 11:58:30;;;;;;;23.30;11.02;;;7.60;99.90;;;;;;4997957;28;20041;-68
2023/12/06 12:00:57;;;;;;;22.63;11.65;;;7.60;99.90;;;;;;4994661;28;20037;-67
2023/12/06 12:03:25;;;;;;;22.70;11.75;;;7.70;99.90;;;;;;4996881;28;20112;-67
2023/12/06 12:05:51;;;;;;;23.20;11.75;;;7.60;99.90;;;;;;4999233;28;20025;-73
2023/12/06 12:08:18;;;;;;;17.42;10.30;;;7.70;99.90;;;;;;4995497;28;20382;-67
2023/12/06 12:10:43;;;;;;;17.65;11.25;;;7.60;99.90;;;;;;4996391;28;20015;-69
2023/12/06 12:13:27;;;;;;;20.00;9.90;;;7.60;99.90;;;;;;4997776;28;20030;-68
2023/12/06 12:15:59;;;;;;;21.50;10.10;;;7.60;99.90;;;;;;4996182;28;20034;-73
2023/12/06 12:18:26;;;;;;;14.77;9.65;;;7.60;99.90;;;;;;4993309;28;20038;-69
2023/12/06 12:20:51;;;;;;;15.85;8.63;;;7.60;99.90;;;;;;4995039;28;20018;-67
2023/12/06 12:23:18;;;;;;;16.17;9.55;;;7.70;99.90;;;;;;4982870;28;20022;-67
2023/12/06 12:25:56;;;;;;;16.25;8.50;;;7.70;99.90;;;;;;4991906;28;20109;-68
2023/12/06 12:28:23;;;;;;;16.27;9.13;;;7.60;99.90;;;;;;4981133;28;20074;-73
2023/12/06 12:31:03;;;;;;;14.43;9.38;;;7.50;99.90;;;;;;4996564;28;20084;-68
2023/12/06 12:33:29;;;;;;;15.85;8.82;;;7.60;99.90;;;;;;4994554;28;20033;-68
2023/12/06 12:35:56;;;;;;;17.70;8.52;;;7.60;99.90;;;;;;4998665;28;20021;-70